Time;durP1;ratioP1;P1;durP2;ratioP2;P2;SDS_P1;SDS_P2;PMS_P1;PMS_P2;Temp;Humidity;BMP_temperature;BMP_pressure;BME280_temperature;BME280_humidity;BME280_pressure;Samples;Min_cycle;Max_cycle;Signal;HPM_P1;HPM_P2
2021/08/27 00:01:01;;;;;;;1.08;0.30;;;14.70;89.20;;;;;;5036598;28;20663;-61
2021/08/27 00:03:27;;;;;;;2.72;0.35;;;14.60;89.20;;;;;;5054478;28;20028;-61
2021/08/27 00:05:53;;;;;;;1.95;0.40;;;14.60;89.40;;;;;;5054289;28;20023;-61
2021/08/27 00:08:18;;;;;;;1.75;0.25;;;14.60;89.50;;;;;;5036409;28;20104;-60
2021/08/27 00:10:44;;;;;;;2.95;0.40;;;14.60;89.60;;;;;;5054344;28;20053;-61
2021/08/27 00:13:10;;;;;;;2.72;0.40;;;14.60;89.70;;;;;;5054178;28;20437;-61
2021/08/27 00:15:36;;;;;;;4.20;0.50;;;14.60;89.90;;;;;;5036597;28;20127;-61
2021/08/27 00:18:02;;;;;;;2.58;0.32;;;14.60;89.90;;;;;;5054121;28;20213;-60
2021/08/27 00:20:27;;;;;;;1.88;0.30;;;14.60;89.90;;;;;;5018705;28;20478;-61
2021/08/27 00:22:53;;;;;;;3.13;0.40;;;14.60;89.90;;;;;;5036367;28;20051;-60
2021/08/27 00:25:18;;;;;;;2.47;0.40;;;14.60;90.00;;;;;;5036327;28;20132;-61
2021/08/27 00:27:44;;;;;;;1.90;0.32;;;14.60;90.00;;;;;;5054671;28;20074;-61
2021/08/27 00:30:10;;;;;;;1.55;0.32;;;14.50;90.00;;;;;;5045875;28;20057;-61
2021/08/27 00:32:36;;;;;;;1.65;0.40;;;14.50;90.10;;;;;;5035488;28;20025;-61
2021/08/27 00:35:04;;;;;;;1.23;0.28;;;14.50;90.20;;;;;;5053545;28;20027;-61
2021/08/27 00:37:30;;;;;;;1.08;0.25;;;14.50;90.20;;;;;;5053778;28;20051;-61
2021/08/27 00:39:56;;;;;;;1.42;0.30;;;14.40;90.20;;;;;;5053781;28;20025;-61
2021/08/27 00:42:22;;;;;;;1.45;0.28;;;14.40;90.30;;;;;;5033172;28;20067;-61
2021/08/27 00:44:47;;;;;;;1.67;0.50;;;14.40;90.30;;;;;;5053872;28;20096;-61
2021/08/27 00:47:13;;;;;;;0.88;0.28;;;14.40;90.30;;;;;;5033464;28;20029;-61
2021/08/27 00:49:38;;;;;;;1.90;0.40;;;14.40;90.40;;;;;;5035949;28;20032;-61
2021/08/27 00:52:08;;;;;;;1.92;0.35;;;14.40;90.30;;;;;;5050386;28;20377;-61
2021/08/27 00:54:33;;;;;;;1.50;0.50;;;14.40;90.40;;;;;;5053561;28;20044;-61
2021/08/27 00:56:59;;;;;;;1.08;0.30;;;14.40;90.70;;;;;;5035704;28;20048;-61
2021/08/27 00:59:24;;;;;;;2.85;0.43;;;14.40;90.40;;;;;;5053156;28;20036;-61
2021/08/27 01:01:51;;;;;;;2.83;0.70;;;14.40;90.50;;;;;;5052817;28;20028;-61
2021/08/27 01:04:17;;;;;;;1.88;0.40;;;14.40;90.50;;;;;;5052295;28;20025;-61
2021/08/27 01:06:52;;;;;;;1.42;0.30;;;14.40;90.60;;;;;;5052305;28;20025;-61
2021/08/27 01:09:38;;;;;;;2.25;0.65;;;14.30;90.60;;;;;;5053397;28;20059;-61
2021/08/27 01:12:43;;;;;;;3.08;0.40;;;14.30;90.70;;;;;;5035204;28;20021;-61
2021/08/27 01:15:20;;;;;;;3.38;0.55;;;14.30;90.80;;;;;;5050654;28;20104;-61
2021/08/27 01:17:54;;;;;;;2.92;0.30;;;14.20;91.20;;;;;;5035219;28;20029;-61
2021/08/27 01:20:38;;;;;;;2.00;0.35;;;14.10;90.90;;;;;;5032468;28;20049;-61
2021/08/27 01:23:15;;;;;;;1.65;0.45;;;14.20;91.00;;;;;;5034774;28;20079;-61
2021/08/27 01:25:49;;;;;;;1.48;0.35;;;14.10;91.00;;;;;;5053142;28;20021;-61
2021/08/27 01:28:16;;;;;;;1.52;0.30;;;14.10;91.10;;;;;;5050774;28;20021;-61
2021/08/27 01:31:10;;;;;;;3.10;0.35;;;14.10;91.20;;;;;;5052942;28;20040;-61
2021/08/27 01:33:41;;;;;;;2.15;0.40;;;14.10;91.20;;;;;;5051191;28;20025;-61
2021/08/27 01:36:08;;;;;;;2.53;0.47;;;14.00;91.20;;;;;;5052711;28;20102;-61
2021/08/27 01:38:37;;;;;;;2.55;0.30;;;14.00;91.30;;;;;;5052576;28;20028;-61
2021/08/27 01:41:06;;;;;;;1.70;0.40;;;14.00;91.30;;;;;;5052661;28;20029;-61
2021/08/27 01:43:32;;;;;;;4.97;0.50;;;14.00;91.30;;;;;;5052326;28;20025;-61
2021/08/27 01:46:00;;;;;;;4.70;0.45;;;13.90;91.40;;;;;;5034103;28;20025;-61
2021/08/27 01:48:30;;;;;;;1.48;0.40;;;14.00;91.40;;;;;;5034571;28;20115;-61
2021/08/27 01:50:56;;;;;;;5.10;0.45;;;13.90;91.40;;;;;;5034827;28;20025;-61
2021/08/27 01:53:24;;;;;;;1.95;0.40;;;13.90;91.50;;;;;;5052057;28;20041;-61
2021/08/27 01:55:51;;;;;;;1.65;0.30;;;13.90;91.50;;;;;;5029903;28;20053;-61
2021/08/27 01:58:16;;;;;;;1.25;0.40;;;13.90;91.50;;;;;;5034280;28;20120;-61
2021/08/27 02:00:43;;;;;;;1.70;0.43;;;13.80;91.60;;;;;;5052337;28;20111;-61
2021/08/27 02:03:09;;;;;;;4.30;0.50;;;13.80;91.60;;;;;;5052333;28;20025;-61
2021/08/27 02:05:36;;;;;;;2.10;0.32;;;13.80;91.70;;;;;;5034339;28;20030;-61
2021/08/27 02:08:03;;;;;;;2.50;0.80;;;13.80;91.70;;;;;;5052094;28;20059;-61
2021/08/27 02:10:30;;;;;;;0.90;0.40;;;13.80;91.80;;;;;;5052163;28;20534;-61
2021/08/27 02:12:55;;;;;;;1.75;0.43;;;13.70;91.80;;;;;;5034117;28;20025;-60
2021/08/27 02:15:23;;;;;;;2.83;0.50;;;13.70;91.90;;;;;;5034366;28;20100;-61
2021/08/27 02:17:49;;;;;;;3.05;0.38;;;13.70;91.90;;;;;;5034248;28;20032;-61
2021/08/27 02:20:15;;;;;;;2.47;0.60;;;13.70;92.00;;;;;;5033910;28;20017;-61
2021/08/27 02:22:43;;;;;;;2.20;0.40;;;13.70;92.10;;;;;;5049164;28;20055;-60
2021/08/27 02:25:15;;;;;;;1.00;0.50;;;13.60;92.10;;;;;;5049133;28;20472;-61
2021/08/27 02:27:42;;;;;;;1.95;0.65;;;13.60;92.20;;;;;;5051809;28;20104;-61
2021/08/27 02:30:09;;;;;;;3.15;1.05;;;13.60;92.20;;;;;;5051736;28;20025;-61
2021/08/27 02:32:35;;;;;;;2.30;0.60;;;13.60;92.30;;;;;;5034053;28;20041;-61
2021/08/27 02:35:04;;;;;;;2.42;0.35;;;13.60;92.30;;;;;;5033736;28;20505;-61
2021/08/27 02:37:34;;;;;;;2.85;0.50;;;13.60;92.40;;;;;;5049340;28;20028;-61
2021/08/27 02:40:01;;;;;;;2.55;0.52;;;13.60;92.40;;;;;;5051266;28;20107;-61
2021/08/27 02:42:30;;;;;;;2.38;0.47;;;13.60;92.50;;;;;;5033835;28;20055;-61
2021/08/27 02:44:56;;;;;;;3.72;0.60;;;13.60;92.60;;;;;;5051801;28;20066;-61
2021/08/27 02:47:21;;;;;;;3.17;0.85;;;13.60;92.70;;;;;;5051782;28;20024;-61
2021/08/27 02:49:47;;;;;;;2.42;0.40;;;13.60;92.70;;;;;;5033656;28;20381;-61
2021/08/27 02:52:38;;;;;;;2.35;0.40;;;13.50;92.70;;;;;;5051485;28;20144;-61
2021/08/27 02:55:08;;;;;;;1.92;0.47;;;13.60;92.80;;;;;;5033505;28;20389;-61
2021/08/27 02:58:01;;;;;;;1.73;0.40;;;13.50;92.90;;;;;;5053761;28;20025;-61
2021/08/27 03:00:32;;;;;;;2.72;0.47;;;13.50;92.80;;;;;;5046305;28;20041;-61
2021/08/27 03:02:58;;;;;;;3.03;0.52;;;13.50;93.00;;;;;;5055399;28;20021;-61
2021/08/27 03:05:25;;;;;;;2.13;0.70;;;13.50;93.00;;;;;;5055789;28;20173;-61
2021/08/27 03:08:02;;;;;;;3.80;0.43;;;13.50;93.00;;;;;;5053226;28;20013;-61
2021/08/27 03:10:37;;;;;;;1.52;0.60;;;13.50;93.10;;;;;;5037220;28;20028;-61
2021/08/27 03:13:09;;;;;;;3.10;0.60;;;13.50;93.10;;;;;;5055343;28;20025;-61
2021/08/27 03:15:49;;;;;;;1.63;0.40;;;13.50;93.20;;;;;;5055516;28;20462;-61
2021/08/27 03:18:53;;;;;;;3.92;0.82;;;13.50;93.20;;;;;;5053517;28;20484;-61
2021/08/27 03:21:26;;;;;;;3.42;0.50;;;13.50;93.20;;;;;;4974312;28;20419;-61
2021/08/27 03:23:56;;;;;;;2.35;0.40;;;13.50;93.30;;;;;;5039903;28;20041;-61
2021/08/27 03:26:27;;;;;;;2.22;0.40;;;13.40;93.40;;;;;;5037283;28;20176;-61
2021/08/27 03:28:58;;;;;;;1.63;0.60;;;13.50;93.40;;;;;;5055141;28;20104;-60
2021/08/27 03:31:25;;;;;;;3.63;0.40;;;13.50;93.40;;;;;;5037067;28;20021;-61
2021/08/27 03:33:54;;;;;;;1.48;0.40;;;13.50;93.40;;;;;;5032406;28;20017;-61
2021/08/27 03:36:20;;;;;;;2.42;0.50;;;13.50;93.50;;;;;;5054923;28;20146;-61
2021/08/27 03:38:46;;;;;;;2.88;0.52;;;13.50;93.50;;;;;;5031670;28;20013;-61
2021/08/27 03:41:13;;;;;;;0.73;0.50;;;13.60;93.50;;;;;;5054707;28;20032;-61
2021/08/27 03:43:40;;;;;;;1.95;0.45;;;13.60;93.60;;;;;;5036901;28;20026;-61
2021/08/27 03:46:07;;;;;;;1.73;0.40;;;13.60;93.60;;;;;;5055208;28;20071;-61
2021/08/27 03:48:34;;;;;;;1.55;0.35;;;13.60;93.60;;;;;;5054903;28;20039;-61
2021/08/27 03:51:01;;;;;;;2.28;0.65;;;13.60;93.60;;;;;;5054733;28;20021;-60
2021/08/27 03:53:27;;;;;;;2.17;0.50;;;13.70;93.70;;;;;;5054272;28;20534;-61
2021/08/27 03:55:53;;;;;;;1.88;0.40;;;13.70;93.70;;;;;;5036725;28;20029;-61
2021/08/27 03:58:23;;;;;;;2.05;0.75;;;13.70;93.80;;;;;;5036636;28;20025;-61
2021/08/27 04:00:49;;;;;;;3.20;0.50;;;13.70;93.80;;;;;;5054430;28;20568;-61
2021/08/27 04:03:15;;;;;;;1.60;0.40;;;13.80;94.10;;;;;;5054500;28;20161;-61
2021/08/27 04:06:04;;;;;;;1.23;0.50;;;13.80;93.90;;;;;;5054467;28;20108;-60
2021/08/27 04:08:33;;;;;;;2.13;0.47;;;13.80;93.90;;;;;;5053420;28;20021;-61
2021/08/27 04:10:59;;;;;;;2.45;0.30;;;13.80;94.00;;;;;;5049300;28;20313;-61
2021/08/27 04:13:24;;;;;;;2.25;0.40;;;13.80;94.00;;;;;;5036381;28;20032;-61
2021/08/27 04:15:50;;;;;;;2.83;0.40;;;13.80;94.10;;;;;;5036461;28;20021;-61
2021/08/27 04:18:15;;;;;;;1.48;0.45;;;13.80;94.10;;;;;;5054226;28;20484;-61
2021/08/27 04:20:41;;;;;;;1.95;0.40;;;13.90;94.20;;;;;;5036344;28;20431;-61
2021/08/27 04:23:06;;;;;;;2.40;0.50;;;13.90;94.20;;;;;;5049454;28;20571;-61
2021/08/27 04:25:32;;;;;;;2.05;0.50;;;13.90;94.30;;;;;;5054336;28;20025;-61
2021/08/27 04:27:58;;;;;;;1.98;0.43;;;13.90;94.30;;;;;;5054031;28;20447;-61
2021/08/27 04:30:23;;;;;;;1.15;0.40;;;13.90;94.30;;;;;;5053992;28;20032;-61
2021/08/27 04:32:49;;;;;;;4.40;0.75;;;13.90;94.40;;;;;;5053800;28;20056;-61
2021/08/27 04:35:14;;;;;;;1.70;0.68;;;13.90;94.40;;;;;;5035992;28;20047;-61
2021/08/27 04:37:40;;;;;;;2.92;0.40;;;14.00;94.50;;;;;;5036061;28;20025;-61
2021/08/27 04:40:34;;;;;;;3.05;0.55;;;14.00;94.50;;;;;;5035640;28;20036;-61
2021/08/27 04:43:00;;;;;;;2.65;0.68;;;14.00;94.60;;;;;;5053468;28;20017;-61
2021/08/27 04:45:26;;;;;;;1.83;0.52;;;14.00;94.70;;;;;;5035941;28;20020;-61
2021/08/27 04:47:51;;;;;;;1.23;0.40;;;14.00;94.70;;;;;;5053651;28;20078;-61
2021/08/27 04:50:17;;;;;;;2.47;0.70;;;14.00;94.70;;;;;;5049635;28;20493;-61
2021/08/27 04:52:42;;;;;;;1.45;0.50;;;14.00;94.80;;;;;;5049988;28;20051;-61
2021/08/27 04:55:09;;;;;;;2.50;0.40;;;14.00;94.80;;;;;;5053429;28;20027;-61
2021/08/27 04:57:40;;;;;;;2.38;0.40;;;14.10;94.90;;;;;;5035572;28;20048;-60
2021/08/27 05:00:08;;;;;;;1.92;0.40;;;14.10;94.90;;;;;;5035207;28;20029;-61
2021/08/27 05:02:35;;;;;;;4.43;0.88;;;14.10;94.90;;;;;;5053010;28;20028;-61
2021/08/27 05:05:00;;;;;;;1.85;0.52;;;14.20;95.00;;;;;;5035830;28;20465;-61
2021/08/27 05:07:26;;;;;;;1.38;0.50;;;14.20;95.00;;;;;;5035529;28;20017;-61
2021/08/27 05:10:13;;;;;;;;;;;;;;;;;;;;;
2021/08/27 05:12:39;;;;;;;3.00;0.70;;;14.20;95.10;;;;;;5050167;28;20029;-61
2021/08/27 05:15:06;;;;;;;1.00;0.43;;;14.20;95.10;;;;;;5053853;28;20564;-61
2021/08/27 05:17:31;;;;;;;2.60;0.65;;;14.30;95.10;;;;;;5053983;28;20024;-61
2021/08/27 05:19:57;;;;;;;2.55;0.60;;;14.30;95.10;;;;;;5035832;28;20504;-61
2021/08/27 05:22:22;;;;;;;3.28;0.85;;;14.30;95.10;;;;;;5036144;28;20017;-61
2021/08/27 05:24:48;;;;;;;2.00;0.80;;;14.40;95.10;;;;;;5053852;28;20029;-61
2021/08/27 05:27:13;;;;;;;2.35;0.50;;;14.40;95.20;;;;;;5053715;28;20067;-61
2021/08/27 05:29:39;;;;;;;2.47;0.70;;;14.40;95.20;;;;;;5053810;28;20112;-61
2021/08/27 05:32:06;;;;;;;2.45;1.15;;;14.40;95.20;;;;;;5053614;28;20052;-61
2021/08/27 05:34:31;;;;;;;1.60;0.52;;;14.50;95.30;;;;;;5024810;28;20025;-61
2021/08/27 05:36:57;;;;;;;3.13;0.75;;;14.50;95.30;;;;;;5052645;28;20021;-61
2021/08/27 05:39:27;;;;;;;1.73;0.45;;;14.50;95.30;;;;;;5053644;28;20036;-61
2021/08/27 05:41:53;;;;;;;2.22;0.65;;;14.60;95.40;;;;;;5053667;28;20009;-61
2021/08/27 05:44:18;;;;;;;2.03;0.43;;;14.60;95.40;;;;;;5053434;28;20389;-61
2021/08/27 05:46:44;;;;;;;5.53;0.70;;;14.70;95.40;;;;;;5053729;28;20480;-61
2021/08/27 05:49:09;;;;;;;2.75;0.65;;;14.70;95.50;;;;;;5053307;28;20103;-61
2021/08/27 05:51:35;;;;;;;2.05;0.93;;;14.70;95.50;;;;;;5053308;28;20025;-61
2021/08/27 05:54:01;;;;;;;2.17;0.60;;;14.80;95.50;;;;;;5034940;28;20055;-61
2021/08/27 05:56:26;;;;;;;1.65;0.40;;;14.80;95.40;;;;;;5053395;28;20105;-61
2021/08/27 05:58:52;;;;;;;3.17;0.60;;;14.90;95.40;;;;;;5035103;28;20040;-61
2021/08/27 06:01:17;;;;;;;1.52;0.60;;;14.90;95.40;;;;;;5052683;28;20025;-61
2021/08/27 06:03:43;;;;;;;1.55;0.60;;;14.90;95.40;;;;;;5053020;28;20025;-61
2021/08/27 06:06:08;;;;;;;1.67;0.60;;;14.90;95.30;;;;;;5052369;28;20029;-61
2021/08/27 06:08:35;;;;;;;1.10;0.43;;;14.90;95.30;;;;;;5034923;28;20021;-61
2021/08/27 06:11:01;;;;;;;2.90;0.65;;;14.90;95.30;;;;;;5053086;28;20032;-61
2021/08/27 06:13:26;;;;;;;1.52;0.77;;;14.90;95.30;;;;;;5034861;28;20056;-61
2021/08/27 06:15:52;;;;;;;1.38;0.60;;;14.90;95.40;;;;;;5035132;28;20056;-61
2021/08/27 06:18:18;;;;;;;1.20;0.40;;;14.90;95.30;;;;;;5034681;28;20037;-61
2021/08/27 06:20:43;;;;;;;4.28;0.60;;;14.90;95.40;;;;;;5034823;28;20029;-61
2021/08/27 06:23:09;;;;;;;2.28;0.70;;;15.00;95.40;;;;;;5051406;28;20024;-61
2021/08/27 06:25:35;;;;;;;2.25;0.50;;;15.00;95.40;;;;;;5052945;28;20497;-61
2021/08/27 06:28:01;;;;;;;1.50;0.50;;;15.00;95.30;;;;;;5052521;28;20025;-61
2021/08/27 06:30:27;;;;;;;1.50;0.50;;;15.10;95.30;;;;;;5047509;28;20397;-61
2021/08/27 06:32:52;;;;;;;3.65;0.50;;;15.20;95.30;;;;;;5051968;28;20090;-61
2021/08/27 06:35:18;;;;;;;2.03;0.77;;;15.20;95.20;;;;;;5052112;28;20029;-61
2021/08/27 06:41:01;;;;;;;2.58;0.60;;;15.40;95.20;;;;;;5041063;28;20032;-61
2021/08/27 06:43:30;;;;;;;2.67;0.50;;;15.50;95.10;;;;;;5034203;28;20484;-61
2021/08/27 06:45:57;;;;;;;2.72;0.50;;;15.50;95.10;;;;;;5051761;28;20024;-61
2021/08/27 06:48:35;;;;;;;1.40;0.50;;;15.50;95.10;;;;;;5052129;28;20017;-61
2021/08/27 06:51:00;;;;;;;4.57;0.40;;;15.50;95.10;;;;;;5033334;28;20025;-61
2021/08/27 06:53:26;;;;;;;3.33;0.50;;;15.50;95.10;;;;;;5050402;28;20053;-61
2021/08/27 06:55:52;;;;;;;2.00;0.60;;;15.60;95.10;;;;;;5052146;28;20032;-61
2021/08/27 06:58:18;;;;;;;4.15;0.60;;;15.70;95.20;;;;;;5034346;28;20036;-61
2021/08/27 07:00:44;;;;;;;0.90;0.47;;;15.70;95.10;;;;;;5051829;28;20048;-61
2021/08/27 07:03:09;;;;;;;1.00;0.40;;;15.80;95.10;;;;;;5051922;28;20027;-61
2021/08/27 07:05:35;;;;;;;2.05;0.50;;;15.90;95.00;;;;;;5051929;28;20100;-61
2021/08/27 07:08:01;;;;;;;2.30;0.60;;;16.00;95.00;;;;;;5033993;28;20049;-61
2021/08/27 07:10:36;;;;;;;3.10;0.60;;;16.10;95.00;;;;;;5034033;28;20040;-61
2021/08/27 07:13:03;;;;;;;1.38;0.50;;;16.20;94.90;;;;;;5051796;28;20100;-62
2021/08/27 07:15:29;;;;;;;1.95;0.50;;;16.20;94.80;;;;;;5051754;28;20025;-61
2021/08/27 07:17:55;;;;;;;1.88;0.75;;;16.30;94.70;;;;;;5034098;28;20151;-61
2021/08/27 07:20:22;;;;;;;1.85;0.50;;;16.30;94.70;;;;;;5051716;28;20017;-61
2021/08/27 07:22:48;;;;;;;2.30;0.50;;;16.30;94.60;;;;;;5034006;28;20024;-61
2021/08/27 07:25:14;;;;;;;3.13;0.70;;;16.40;94.60;;;;;;5051969;28;20017;-61
2021/08/27 07:27:40;;;;;;;1.50;0.50;;;16.40;94.60;;;;;;5032455;28;20358;-61
2021/08/27 07:30:08;;;;;;;3.53;0.60;;;16.40;94.50;;;;;;5050091;28;20032;-61
2021/08/27 07:32:51;;;;;;;3.20;0.60;;;16.50;94.50;;;;;;5053792;28;20017;-61
2021/08/27 07:35:17;;;;;;;2.92;0.50;;;16.60;94.40;;;;;;5047946;28;20086;-61
2021/08/27 07:37:53;;;;;;;1.77;0.50;;;16.60;94.40;;;;;;5051149;28;20428;-61
2021/08/27 07:40:18;;;;;;;2.22;0.70;;;16.70;94.20;;;;;;5051510;28;20060;-61
2021/08/27 07:42:44;;;;;;;2.25;0.60;;;16.70;94.20;;;;;;5035885;28;20465;-63
2021/08/27 07:45:10;;;;;;;3.50;0.73;;;16.70;94.00;;;;;;5055499;28;20381;-62
2021/08/27 07:47:36;;;;;;;1.08;0.40;;;16.80;94.00;;;;;;5055493;28;20116;-62
2021/08/27 07:50:03;;;;;;;1.92;0.52;;;16.90;94.00;;;;;;5037454;28;20164;-62
2021/08/27 07:52:29;;;;;;;3.35;0.50;;;17.00;93.90;;;;;;5031009;28;20052;-62
2021/08/27 07:54:55;;;;;;;2.40;0.70;;;17.00;93.70;;;;;;5026923;28;20060;-62
2021/08/27 07:57:20;;;;;;;2.60;0.73;;;17.10;93.60;;;;;;5055449;28;20067;-62
2021/08/27 07:59:46;;;;;;;2.35;0.65;;;17.30;93.60;;;;;;5055500;28;20025;-62
2021/08/27 08:02:14;;;;;;;2.53;0.60;;;17.30;93.40;;;;;;5055135;28;20029;-62
2021/08/27 08:04:40;;;;;;;2.97;0.65;;;17.40;93.30;;;;;;5055379;28;20043;-62
2021/08/27 08:07:05;;;;;;;5.32;0.80;;;17.40;93.20;;;;;;5053889;28;20131;-62
2021/08/27 08:09:31;;;;;;;4.43;1.25;;;17.50;93.20;;;;;;5055178;28;20025;-62
2021/08/27 08:11:56;;;;;;;3.55;0.70;;;17.50;93.20;;;;;;5055114;28;20035;-62
2021/08/27 08:14:28;;;;;;;2.25;0.50;;;17.50;93.10;;;;;;5055000;28;20021;-62
2021/08/27 08:16:54;;;;;;;2.38;0.70;;;17.60;93.20;;;;;;5035902;28;20083;-63
2021/08/27 08:19:49;;;;;;;1.25;0.40;;;17.60;93.10;;;;;;5055069;28;20048;-63
2021/08/27 08:22:17;;;;;;;3.15;0.70;;;17.70;93.00;;;;;;5054457;28;20021;-63
2021/08/27 08:24:42;;;;;;;1.02;0.40;;;17.70;93.00;;;;;;5054617;28;20017;-62
2021/08/27 08:27:08;;;;;;;2.08;0.50;;;17.80;93.00;;;;;;5036417;28;20028;-62
2021/08/27 08:29:33;;;;;;;2.92;0.80;;;17.80;92.90;;;;;;5054577;28;20033;-62
2021/08/27 08:32:25;;;;;;;1.83;0.63;;;17.90;92.70;;;;;;5053654;28;20031;-62
2021/08/27 08:34:50;;;;;;;2.63;0.65;;;18.00;92.40;;;;;;5054297;28;20064;-62
2021/08/27 08:37:16;;;;;;;3.75;1.00;;;18.00;92.60;;;;;;5036354;28;20111;-62
2021/08/27 08:39:41;;;;;;;2.03;0.50;;;18.00;92.60;;;;;;5054738;28;20021;-63
2021/08/27 08:42:07;;;;;;;0.90;0.50;;;18.10;92.70;;;;;;5054008;28;20039;-62
2021/08/27 08:44:33;;;;;;;1.85;0.60;;;18.20;92.80;;;;;;5054478;28;20025;-63
2021/08/27 08:46:59;;;;;;;1.85;0.80;;;18.30;92.80;;;;;;5036770;28;20017;-63
2021/08/27 08:49:28;;;;;;;1.83;0.70;;;18.50;92.80;;;;;;5053828;28;20074;-62
2021/08/27 08:52:15;;;;;;;2.53;0.80;;;18.60;92.70;;;;;;5051249;28;20496;-62
2021/08/27 08:54:41;;;;;;;3.63;1.15;;;18.70;92.60;;;;;;5053687;28;20055;-62
2021/08/27 08:57:07;;;;;;;2.67;0.60;;;18.90;92.50;;;;;;5053869;28;20040;-62
2021/08/27 08:59:42;;;;;;;3.88;1.48;;;19.00;92.40;;;;;;5036681;28;20377;-62
2021/08/27 09:02:08;;;;;;;2.70;0.70;;;19.10;92.20;;;;;;5053433;28;20043;-62
2021/08/27 09:04:33;;;;;;;1.98;0.65;;;19.10;92.20;;;;;;5052737;28;20063;-62
2021/08/27 09:06:59;;;;;;;2.70;0.85;;;19.20;92.10;;;;;;5034381;28;20072;-62
2021/08/27 09:09:54;;;;;;;3.35;0.80;;;19.30;92.00;;;;;;5037125;28;20033;-63
2021/08/27 09:16:32;;;;;;;2.65;0.90;;;19.70;91.70;;;;;;4931976;28;20036;-62
2021/08/27 09:18:58;;;;;;;3.03;0.73;;;19.70;91.30;;;;;;4968578;28;20032;-63
2021/08/27 09:21:40;;;;;;;3.17;0.82;;;19.80;91.20;;;;;;5032115;28;20098;-62
2021/08/27 09:24:08;;;;;;;3.33;0.90;;;19.90;90.60;;;;;;5030891;28;20021;-63
2021/08/27 09:26:35;;;;;;;2.75;1.02;;;20.10;90.50;;;;;;5004365;28;20021;-63
2021/08/27 09:29:38;;;;;;;4.90;1.05;;;20.20;90.30;;;;;;5031107;28;20021;-62
2021/08/27 09:32:17;;;;;;;2.17;0.55;;;20.30;90.00;;;;;;5033812;28;20393;-63
2021/08/27 09:38:14;;;;;;;2.05;0.60;;;20.50;88.70;;;;;;4971170;28;20365;-63
2021/08/27 09:51:45;;;;;;;3.00;0.93;;;20.30;87.30;;;;;;4991676;28;20112;-62
2021/08/27 09:54:23;;;;;;;4.45;0.90;;;20.30;87.10;;;;;;5046965;28;20116;-62
2021/08/27 09:57:15;;;;;;;4.15;1.08;;;20.30;86.50;;;;;;5045297;28;20024;-62
2021/08/27 10:00:23;;;;;;;3.70;1.00;;;20.40;86.20;;;;;;5053161;28;20086;-62
2021/08/27 10:02:41;;;;;;;3.47;1.13;;;20.60;85.50;;;;;;5047530;28;20445;-62
2021/08/27 10:05:06;;;;;;;1.88;0.80;;;20.70;85.30;;;;;;5051527;28;20112;-62
2021/08/27 10:07:35;;;;;;;2.95;1.00;;;20.80;84.70;;;;;;5050988;28;20021;-62
2021/08/27 10:10:03;;;;;;;2.58;0.90;;;20.90;83.80;;;;;;5033880;28;20384;-62
2021/08/27 10:12:34;;;;;;;4.45;1.27;;;21.00;83.80;;;;;;5034312;28;20491;-62
2021/08/27 10:15:01;;;;;;;2.40;0.85;;;21.10;83.30;;;;;;5051838;28;20083;-63
2021/08/27 10:17:27;;;;;;;3.75;1.08;;;21.10;83.20;;;;;;5049158;28;20100;-62
2021/08/27 10:19:53;;;;;;;4.28;1.17;;;21.10;83.00;;;;;;5052280;28;20063;-62
2021/08/27 10:22:26;;;;;;;2.38;0.70;;;21.10;83.00;;;;;;5034276;28;20029;-62
2021/08/27 10:25:15;;;;;;;2.92;0.75;;;21.30;83.10;;;;;;5033163;28;20029;-62
2021/08/27 10:27:46;;;;;;;3.47;1.00;;;21.70;82.60;;;;;;5030882;28;20021;-62
2021/08/27 10:34:03;;;;;;;3.70;0.80;;;21.70;81.40;;;;;;4837038;29;20041;-62
2021/08/27 10:36:28;;;;;;;3.13;0.93;;;21.40;81.60;;;;;;4935807;28;20420;-62
2021/08/27 10:39:23;;;;;;;;;;;;;;;;;;;;;
2021/08/27 10:41:49;;;;;;;3.25;0.93;;;21.10;81.80;;;;;;5049834;28;20027;-63
2021/08/27 10:44:15;;;;;;;5.50;1.15;;;21.00;82.20;;;;;;5034325;28;20112;-63
2021/08/27 10:47:00;;;;;;;;;;;;;;;;;;;;;
2021/08/27 10:49:44;;;;;;;6.28;1.58;;;20.30;84.50;;;;;;5050056;28;20028;-62
2021/08/27 10:52:34;;;;;;;4.05;1.10;;;19.90;86.70;;;;;;5051881;28;20024;-62
2021/08/27 10:55:03;;;;;;;4.03;0.90;;;19.60;88.30;;;;;;5051608;28;20068;-62
2021/08/27 10:57:29;;;;;;;3.58;1.08;;;19.50;89.30;;;;;;5049179;28;20020;-62
2021/08/27 11:01:02;;;;;;;;;;;;;;;;;;;;;
2021/08/27 11:06:57;;;;;;;3.53;1.27;;;19.50;90.10;;;;;;4962013;28;20116;-62
2021/08/27 11:09:26;;;;;;;1.90;0.85;;;19.70;90.20;;;;;;4951562;28;20502;-62
2021/08/27 11:12:08;;;;;;;2.03;0.60;;;20.20;90.00;;;;;;5002347;28;20413;-62
2021/08/27 11:14:34;;;;;;;1.35;0.50;;;20.80;89.10;;;;;;5033379;28;20052;-62
2021/08/27 11:17:03;;;;;;;1.85;0.52;;;21.50;87.70;;;;;;5055354;28;20051;-62
2021/08/27 11:19:59;;;;;;;1.75;0.60;;;22.40;86.30;;;;;;5055425;28;20055;-62
2021/08/27 11:23:21;;;;;;;2.15;0.75;;;25.60;80.90;;;;;;5050168;28;20029;-63
2021/08/27 11:26:04;;;;;;;2.95;0.63;;;28.70;72.40;;;;;;4965844;28;20538;-62
2021/08/27 11:28:32;;;;;;;1.73;0.60;;;29.80;67.10;;;;;;5030189;28;20029;-62
2021/08/27 11:31:04;;;;;;;3.47;0.83;;;29.40;62.90;;;;;;5055242;28;20109;-63
2021/08/27 11:36:34;;;;;;;3.10;0.90;;;26.80;66.80;;;;;;5051484;28;20075;-62
2021/08/27 11:38:59;;;;;;;3.38;0.95;;;26.10;69.10;;;;;;5037353;28;20032;-63
2021/08/27 11:41:26;;;;;;;2.80;0.90;;;25.60;70.10;;;;;;5054912;28;20021;-62
2021/08/27 11:44:01;;;;;;;3.47;0.90;;;25.20;71.00;;;;;;5037257;28;20595;-62
2021/08/27 11:46:28;;;;;;;2.25;0.80;;;24.80;72.00;;;;;;5054350;28;20032;-62
2021/08/27 11:48:59;;;;;;;2.95;0.82;;;24.60;73.30;;;;;;5055252;28;20131;-63
2021/08/27 11:52:10;;;;;;;4.05;0.90;;;24.90;73.90;;;;;;5029935;28;20025;-63
2021/08/27 11:54:36;;;;;;;1.00;0.50;;;25.60;73.20;;;;;;5024570;28;20040;-63
2021/08/27 12:00:30;;;;;;;1.50;0.52;;;27.40;70.50;;;;;;4977300;28;20259;-63
2021/08/27 12:02:57;;;;;;;1.77;0.60;;;27.50;68.70;;;;;;5008923;28;20025;-63
2021/08/27 12:05:23;;;;;;;2.50;0.73;;;27.40;68.40;;;;;;5053237;28;20021;-63
2021/08/27 12:07:57;;;;;;;2.05;0.70;;;27.40;67.10;;;;;;5054977;28;20021;-63
2021/08/27 12:10:42;;;;;;;;;;;;;;;;;;;;;
2021/08/27 12:13:11;;;;;;;1.55;0.60;;;27.40;65.50;;;;;;5054918;28;20033;-63
2021/08/27 12:15:40;;;;;;;1.42;0.50;;;27.50;65.20;;;;;;5054845;28;20021;-63
2021/08/27 12:18:10;;;;;;;2.50;0.80;;;27.80;64.50;;;;;;5054084;28;20031;-62
2021/08/27 12:20:44;;;;;;;2.50;0.60;;;27.90;63.90;;;;;;5036481;28;20432;-63
2021/08/27 12:23:47;;;;;;;3.33;0.80;;;28.10;63.70;;;;;;5036428;28;20021;-63
2021/08/27 12:26:22;;;;;;;2.45;0.88;;;28.10;63.30;;;;;;5031352;28;20017;-66
2021/08/27 12:28:47;;;;;;;3.50;1.10;;;28.20;63.10;;;;;;5053411;28;20039;-66
2021/08/27 12:31:20;;;;;;;2.67;1.08;;;28.30;61.90;;;;;;5053473;28;20055;-67
2021/08/27 12:33:46;;;;;;;1.85;0.63;;;28.30;61.30;;;;;;5053401;28;20057;-67
2021/08/27 12:36:12;;;;;;;3.20;1.13;;;28.40;61.40;;;;;;5025662;28;20431;-67
2021/08/27 12:39:01;;;;;;;;;;;;;;;;;;;;;
2021/08/27 12:41:29;;;;;;;;;;;28.90;60.00;;;;;;5049194;28;20028;-66
2021/08/27 12:44:30;;;;;;;;;;;;;;;;;;;;;
2021/08/27 12:46:56;;;;;;;3.35;0.90;;;29.10;58.40;;;;;;5054357;28;20025;-67
2021/08/27 12:49:24;;;;;;;3.00;1.02;;;29.00;58.20;;;;;;5054383;28;20028;-66
2021/08/27 12:52:09;;;;;;;2.57;1.10;;;28.80;58.30;;;;;;5053578;28;20491;-67
2021/08/27 12:55:02;;;;;;;;;;;;;;;;;;;;;
2021/08/27 12:57:28;;;;;;;3.05;0.80;;;28.60;58.70;;;;;;5053968;28;20052;-67
2021/08/27 13:00:04;;;;;;;3.55;0.82;;;28.70;58.70;;;;;;5053918;28;20671;-66
2021/08/27 13:02:37;;;;;;;3.78;1.50;;;28.90;58.50;;;;;;5052981;28;20120;-66
2021/08/27 13:08:14;;;;;;;3.65;1.05;;;29.10;58.10;;;;;;5038259;28;20025;-66
2021/08/27 13:11:07;;;;;;;2.10;0.90;;;29.10;57.60;;;;;;5051979;28;20096;-66
2021/08/27 13:13:42;;;;;;;3.38;1.20;;;29.10;57.80;;;;;;5052253;28;20053;-66
2021/08/27 13:16:17;;;;;;;3.38;1.35;;;29.20;57.40;;;;;;5050575;28;20028;-66
2021/08/27 13:18:56;;;;;;;2.40;0.88;;;29.20;56.70;;;;;;5052942;28;20021;-66
2021/08/27 13:22:29;;;;;;;2.10;1.00;;;29.20;56.70;;;;;;5035132;28;20060;-66
2021/08/27 13:24:56;;;;;;;3.03;1.00;;;29.20;55.60;;;;;;5047235;28;20029;-66
2021/08/27 13:27:43;;;;;;;4.15;1.13;;;29.20;55.60;;;;;;5052684;28;20021;-66
2021/08/27 13:33:26;;;;;;;3.58;1.50;;;29.30;54.40;;;;;;5051562;28;20108;-66
2021/08/27 13:42:37;;;;;;;6.10;1.77;;;29.20;53.60;;;;;;5037207;28;20115;-63
2021/08/27 13:45:03;;;;;;;3.97;1.27;;;29.10;53.40;;;;;;5052296;28;20099;-63
2021/08/27 13:47:29;;;;;;;7.35;2.35;;;28.90;53.40;;;;;;5052136;28;20025;-63
2021/08/27 13:49:55;;;;;;;5.05;2.00;;;28.30;53.30;;;;;;5052416;28;20024;-63
2021/08/27 13:52:20;;;;;;;4.65;1.52;;;27.60;55.60;;;;;;5028346;28;20028;-63
2021/08/27 13:54:46;;;;;;;4.70;1.63;;;26.90;57.40;;;;;;5050877;28;20480;-64
2021/08/27 13:57:11;;;;;;;3.85;1.55;;;26.30;59.10;;;;;;5046576;28;20114;-63
2021/08/27 13:59:45;;;;;;;3.97;1.23;;;25.80;60.40;;;;;;5032630;28;20515;-63
2021/08/27 14:02:13;;;;;;;3.10;1.05;;;25.80;60.80;;;;;;5049997;28;20039;-63